sensor_id;sensor_type;location;lat;lon;timestamp;temperature;humidity
48936;DHT22;34745;52.276;10.528;2023-08-24T00:01:26;19.40;1.00
48936;DHT22;34745;52.276;10.528;2023-08-24T00:03:53;19.40;1.00
48936;DHT22;34745;52.276;10.528;2023-08-24T00:06:20;19.50;1.00
48936;DHT22;34745;52.276;10.528;2023-08-24T00:08:48;19.60;1.00
48936;DHT22;34745;52.276;10.528;2023-08-24T00:11:16;19.60;1.00
48936;DHT22;34745;52.276;10.528;2023-08-24T00:13:43;19.60;1.00
48936;DHT22;34745;52.276;10.528;2023-08-24T00:16:16;19.60;1.00
48936;DHT22;34745;52.276;10.528;2023-08-24T00:18:43;19.50;1.00
48936;DHT22;34745;52.276;10.528;2023-08-24T00:21:13;19.50;1.00
48936;DHT22;34745;52.276;10.528;2023-08-24T00:23:40;19.50;1.00
48936;DHT22;34745;52.276;10.528;2023-08-24T00:26:07;19.60;1.00
48936;DHT22;34745;52.276;10.528;2023-08-24T00:28:36;19.60;1.00
48936;DHT22;34745;52.276;10.528;2023-08-24T00:31:03;19.60;1.00
48936;DHT22;34745;52.276;10.528;2023-08-24T00:33:30;19.70;1.00
48936;DHT22;34745;52.276;10.528;2023-08-24T00:35:59;19.50;1.00
48936;DHT22;34745;52.276;10.528;2023-08-24T00:38:27;19.50;1.00
48936;DHT22;34745;52.276;10.528;2023-08-24T00:40:55;19.40;1.00
48936;DHT22;34745;52.276;10.528;2023-08-24T00:43:22;19.30;1.00
48936;DHT22;34745;52.276;10.528;2023-08-24T00:45:53;19.30;1.00
48936;DHT22;34745;52.276;10.528;2023-08-24T00:48:21;19.20;1.00
48936;DHT22;34745;52.276;10.528;2023-08-24T00:50:53;19.20;1.00
48936;DHT22;34745;52.276;10.528;2023-08-24T00:53:20;19.20;1.00
48936;DHT22;34745;52.276;10.528;2023-08-24T00:55:48;19.20;1.00
48936;DHT22;34745;52.276;10.528;2023-08-24T00:58:15;19.10;1.00
48936;DHT22;34745;52.276;10.528;2023-08-24T01:00:43;19.10;1.00
48936;DHT22;34745;52.276;10.528;2023-08-24T01:03:11;19.10;1.00
48936;DHT22;34745;52.276;10.528;2023-08-24T01:05:39;19.00;1.00
48936;DHT22;34745;52.276;10.528;2023-08-24T01:08:06;19.00;1.00
48936;DHT22;34745;52.276;10.528;2023-08-24T01:10:40;18.90;1.00
48936;DHT22;34745;52.276;10.528;2023-08-24T01:13:10;19.00;1.00
48936;DHT22;34745;52.276;10.528;2023-08-24T01:15:47;18.90;1.00
48936;DHT22;34745;52.276;10.528;2023-08-24T01:18:17;18.90;1.00
48936;DHT22;34745;52.276;10.528;2023-08-24T01:20:47;18.90;1.00
48936;DHT22;34745;52.276;10.528;2023-08-24T01:23:28;18.90;1.00
48936;DHT22;34745;52.276;10.528;2023-08-24T01:26:08;19.00;1.00
48936;DHT22;34745;52.276;10.528;2023-08-24T01:28:37;19.10;1.00
48936;DHT22;34745;52.276;10.528;2023-08-24T01:31:04;19.10;1.00
48936;DHT22;34745;52.276;10.528;2023-08-24T01:33:32;19.10;1.00
48936;DHT22;34745;52.276;10.528;2023-08-24T01:35:59;19.10;1.00
48936;DHT22;34745;52.276;10.528;2023-08-24T01:38:26;19.00;1.00
48936;DHT22;34745;52.276;10.528;2023-08-24T01:41:00;18.90;1.00
48936;DHT22;34745;52.276;10.528;2023-08-24T01:43:31;18.80;1.00
48936;DHT22;34745;52.276;10.528;2023-08-24T01:46:12;18.80;1.00
48936;DHT22;34745;52.276;10.528;2023-08-24T01:48:42;18.80;1.00
48936;DHT22;34745;52.276;10.528;2023-08-24T01:51:11;18.60;1.00
48936;DHT22;34745;52.276;10.528;2023-08-24T01:53:39;18.60;1.00
48936;DHT22;34745;52.276;10.528;2023-08-24T01:56:10;18.40;1.00
48936;DHT22;34745;52.276;10.528;2023-08-24T01:58:39;18.40;1.00
48936;DHT22;34745;52.276;10.528;2023-08-24T02:01:07;18.40;1.00
48936;DHT22;34745;52.276;10.528;2023-08-24T02:03:34;18.40;1.00
48936;DHT22;34745;52.276;10.528;2023-08-24T02:06:02;18.50;1.00
48936;DHT22;34745;52.276;10.528;2023-08-24T02:08:29;18.50;1.00
48936;DHT22;34745;52.276;10.528;2023-08-24T02:10:56;18.40;1.00
48936;DHT22;34745;52.276;10.528;2023-08-24T02:13:23;18.50;1.00
48936;DHT22;34745;52.276;10.528;2023-08-24T02:16:01;18.50;1.00
48936;DHT22;34745;52.276;10.528;2023-08-24T02:18:28;18.50;1.00
48936;DHT22;34745;52.276;10.528;2023-08-24T02:20:55;18.40;1.00
48936;DHT22;34745;52.276;10.528;2023-08-24T02:23:22;18.30;1.00
48936;DHT22;34745;52.276;10.528;2023-08-24T02:25:49;18.20;1.00
48936;DHT22;34745;52.276;10.528;2023-08-24T02:28:16;18.20;1.00
48936;DHT22;34745;52.276;10.528;2023-08-24T02:30:43;18.20;1.00
48936;DHT22;34745;52.276;10.528;2023-08-24T02:33:12;18.30;1.00
48936;DHT22;34745;52.276;10.528;2023-08-24T02:35:39;18.30;1.00
48936;DHT22;34745;52.276;10.528;2023-08-24T02:38:06;18.40;1.00
48936;DHT22;34745;52.276;10.528;2023-08-24T02:40:33;18.30;1.00
48936;DHT22;34745;52.276;10.528;2023-08-24T02:43:00;18.40;1.00
48936;DHT22;34745;52.276;10.528;2023-08-24T02:45:27;18.30;1.00
48936;DHT22;34745;52.276;10.528;2023-08-24T02:47:54;18.40;1.00
48936;DHT22;34745;52.276;10.528;2023-08-24T02:50:23;18.40;1.00
48936;DHT22;34745;52.276;10.528;2023-08-24T02:52:49;18.40;1.00
48936;DHT22;34745;52.276;10.528;2023-08-24T02:55:18;18.30;1.00
48936;DHT22;34745;52.276;10.528;2023-08-24T02:57:45;18.30;1.00
48936;DHT22;34745;52.276;10.528;2023-08-24T03:00:12;18.20;1.00
48936;DHT22;34745;52.276;10.528;2023-08-24T03:02:40;18.20;1.00
48936;DHT22;34745;52.276;10.528;2023-08-24T03:05:08;18.20;1.00
48936;DHT22;34745;52.276;10.528;2023-08-24T03:07:37;18.20;1.00
48936;DHT22;34745;52.276;10.528;2023-08-24T03:10:04;18.20;1.00
48936;DHT22;34745;52.276;10.528;2023-08-24T03:12:31;18.20;1.00
48936;DHT22;34745;52.276;10.528;2023-08-24T03:14:58;18.20;1.00
48936;DHT22;34745;52.276;10.528;2023-08-24T03:17:26;19.40;1.00
48936;DHT22;34745;52.276;10.528;2023-08-24T03:19:53;18.20;1.00
48936;DHT22;34745;52.276;10.528;2023-08-24T03:22:20;18.30;1.00
48936;DHT22;34745;52.276;10.528;2023-08-24T03:24:48;18.30;1.00
48936;DHT22;34745;52.276;10.528;2023-08-24T03:27:15;18.20;1.00
48936;DHT22;34745;52.276;10.528;2023-08-24T03:29:42;18.20;1.00
48936;DHT22;34745;52.276;10.528;2023-08-24T03:32:09;18.20;1.00
48936;DHT22;34745;52.276;10.528;2023-08-24T03:34:36;18.20;1.00
48936;DHT22;34745;52.276;10.528;2023-08-24T03:37:04;18.20;1.00
48936;DHT22;34745;52.276;10.528;2023-08-24T03:39:31;18.30;1.00
48936;DHT22;34745;52.276;10.528;2023-08-24T03:41:59;18.30;1.00
48936;DHT22;34745;52.276;10.528;2023-08-24T03:44:26;18.30;1.00
48936;DHT22;34745;52.276;10.528;2023-08-24T03:46:53;18.30;1.00
48936;DHT22;34745;52.276;10.528;2023-08-24T03:49:21;18.30;1.00
48936;DHT22;34745;52.276;10.528;2023-08-24T03:51:48;18.20;1.00
48936;DHT22;34745;52.276;10.528;2023-08-24T03:54:15;18.20;1.00
48936;DHT22;34745;52.276;10.528;2023-08-24T03:56:42;18.20;1.00
48936;DHT22;34745;52.276;10.528;2023-08-24T03:59:11;18.10;1.00
48936;DHT22;34745;52.276;10.528;2023-08-24T04:01:38;18.10;1.00
48936;DHT22;34745;52.276;10.528;2023-08-24T04:04:05;18.10;1.00
48936;DHT22;34745;52.276;10.528;2023-08-24T04:06:33;18.10;1.00
48936;DHT22;34745;52.276;10.528;2023-08-24T04:09:00;18.10;1.00
48936;DHT22;34745;52.276;10.528;2023-08-24T04:11:27;18.20;1.00
48936;DHT22;34745;52.276;10.528;2023-08-24T04:13:54;18.10;1.00
48936;DHT22;34745;52.276;10.528;2023-08-24T04:16:23;18.10;1.00
48936;DHT22;34745;52.276;10.528;2023-08-24T04:18:50;18.10;1.00
48936;DHT22;34745;52.276;10.528;2023-08-24T04:21:17;18.20;1.00
48936;DHT22;34745;52.276;10.528;2023-08-24T04:23:44;18.20;1.00
48936;DHT22;34745;52.276;10.528;2023-08-24T04:26:11;18.20;1.00
48936;DHT22;34745;52.276;10.528;2023-08-24T04:28:40;18.00;1.00
48936;DHT22;34745;52.276;10.528;2023-08-24T04:31:07;17.90;1.00
48936;DHT22;34745;52.276;10.528;2023-08-24T04:33:36;17.80;1.00
48936;DHT22;34745;52.276;10.528;2023-08-24T04:36:03;17.80;1.00
48936;DHT22;34745;52.276;10.528;2023-08-24T04:38:30;17.80;1.00
48936;DHT22;34745;52.276;10.528;2023-08-24T04:40:57;17.70;1.00
48936;DHT22;34745;52.276;10.528;2023-08-24T04:43:24;17.70;1.00
48936;DHT22;34745;52.276;10.528;2023-08-24T04:45:53;17.60;1.00
48936;DHT22;34745;52.276;10.528;2023-08-24T04:48:20;17.60;1.00
48936;DHT22;34745;52.276;10.528;2023-08-24T04:50:49;17.60;1.00
48936;DHT22;34745;52.276;10.528;2023-08-24T04:53:17;17.60;1.00
48936;DHT22;34745;52.276;10.528;2023-08-24T04:55:45;17.70;1.00
48936;DHT22;34745;52.276;10.528;2023-08-24T04:58:13;17.70;1.00
48936;DHT22;34745;52.276;10.528;2023-08-24T05:00:40;17.70;1.00
48936;DHT22;34745;52.276;10.528;2023-08-24T05:03:08;17.70;1.00
48936;DHT22;34745;52.276;10.528;2023-08-24T05:05:37;17.70;1.00
48936;DHT22;34745;52.276;10.528;2023-08-24T05:08:06;17.70;1.00
48936;DHT22;34745;52.276;10.528;2023-08-24T05:10:39;17.60;1.00
48936;DHT22;34745;52.276;10.528;2023-08-24T05:13:06;17.70;1.00
48936;DHT22;34745;52.276;10.528;2023-08-24T05:15:33;17.70;1.00
48936;DHT22;34745;52.276;10.528;2023-08-24T05:18:00;17.80;1.00
48936;DHT22;34745;52.276;10.528;2023-08-24T05:20:28;17.80;1.00
48936;DHT22;34745;52.276;10.528;2023-08-24T05:22:55;17.90;1.00
48936;DHT22;34745;52.276;10.528;2023-08-24T05:25:24;18.00;1.00
48936;DHT22;34745;52.276;10.528;2023-08-24T05:27:50;18.00;1.00
48936;DHT22;34745;52.276;10.528;2023-08-24T05:30:19;18.10;1.00
48936;DHT22;34745;52.276;10.528;2023-08-24T05:32:46;18.20;1.00
48936;DHT22;34745;52.276;10.528;2023-08-24T05:35:14;18.30;1.00
48936;DHT22;34745;52.276;10.528;2023-08-24T05:37:41;18.40;1.00
48936;DHT22;34745;52.276;10.528;2023-08-24T05:40:08;18.40;1.00
48936;DHT22;34745;52.276;10.528;2023-08-24T05:42:37;18.60;1.00
48936;DHT22;34745;52.276;10.528;2023-08-24T05:45:05;18.60;1.00
48936;DHT22;34745;52.276;10.528;2023-08-24T05:47:32;18.70;1.00
48936;DHT22;34745;52.276;10.528;2023-08-24T05:49:59;18.70;1.00
48936;DHT22;34745;52.276;10.528;2023-08-24T05:52:27;18.70;1.00
48936;DHT22;34745;52.276;10.528;2023-08-24T05:54:54;18.80;1.00
48936;DHT22;34745;52.276;10.528;2023-08-24T05:57:21;18.90;1.00
48936;DHT22;34745;52.276;10.528;2023-08-24T05:59:50;18.90;1.00
48936;DHT22;34745;52.276;10.528;2023-08-24T06:02:16;18.90;1.00
48936;DHT22;34745;52.276;10.528;2023-08-24T06:04:44;18.90;1.00
48936;DHT22;34745;52.276;10.528;2023-08-24T06:07:10;18.90;1.00
48936;DHT22;34745;52.276;10.528;2023-08-24T06:09:38;19.00;1.00
48936;DHT22;34745;52.276;10.528;2023-08-24T06:12:06;19.00;1.00
48936;DHT22;34745;52.276;10.528;2023-08-24T06:14:33;19.10;1.00
48936;DHT22;34745;52.276;10.528;2023-08-24T06:17:01;19.20;1.00
48936;DHT22;34745;52.276;10.528;2023-08-24T06:19:29;19.20;1.00
48936;DHT22;34745;52.276;10.528;2023-08-24T06:21:56;19.30;1.00
48936;DHT22;34745;52.276;10.528;2023-08-24T06:24:23;19.30;1.00
48936;DHT22;34745;52.276;10.528;2023-08-24T06:26:50;19.30;1.00
48936;DHT22;34745;52.276;10.528;2023-08-24T06:29:17;19.40;1.00
48936;DHT22;34745;52.276;10.528;2023-08-24T06:31:45;19.40;1.00
48936;DHT22;34745;52.276;10.528;2023-08-24T06:34:13;19.40;1.00
48936;DHT22;34745;52.276;10.528;2023-08-24T06:36:40;19.30;1.00
48936;DHT22;34745;52.276;10.528;2023-08-24T06:39:07;19.30;1.00
48936;DHT22;34745;52.276;10.528;2023-08-24T06:41:35;19.40;1.00
48936;DHT22;34745;52.276;10.528;2023-08-24T06:44:02;19.40;1.00
48936;DHT22;34745;52.276;10.528;2023-08-24T06:46:29;19.40;1.00
48936;DHT22;34745;52.276;10.528;2023-08-24T06:48:56;19.40;1.00
48936;DHT22;34745;52.276;10.528;2023-08-24T06:51:26;19.40;1.00
48936;DHT22;34745;52.276;10.528;2023-08-24T06:53:53;19.50;1.00
48936;DHT22;34745;52.276;10.528;2023-08-24T06:56:20;19.50;1.00
48936;DHT22;34745;52.276;10.528;2023-08-24T06:58:48;19.50;1.00
48936;DHT22;34745;52.276;10.528;2023-08-24T07:01:15;19.50;1.00
48936;DHT22;34745;52.276;10.528;2023-08-24T07:03:42;19.60;1.00
48936;DHT22;34745;52.276;10.528;2023-08-24T07:06:10;19.60;1.00
48936;DHT22;34745;52.276;10.528;2023-08-24T07:08:41;19.60;1.00
48936;DHT22;34745;52.276;10.528;2023-08-24T07:11:08;19.70;1.00
48936;DHT22;34745;52.276;10.528;2023-08-24T07:13:35;19.70;1.00
48936;DHT22;34745;52.276;10.528;2023-08-24T07:16:02;19.70;1.00
48936;DHT22;34745;52.276;10.528;2023-08-24T07:18:30;19.70;1.00
48936;DHT22;34745;52.276;10.528;2023-08-24T07:20:57;19.70;1.00
48936;DHT22;34745;52.276;10.528;2023-08-24T07:23:24;19.80;1.00
48936;DHT22;34745;52.276;10.528;2023-08-24T07:25:52;19.70;1.00
48936;DHT22;34745;52.276;10.528;2023-08-24T07:28:19;19.70;1.00
48936;DHT22;34745;52.276;10.528;2023-08-24T07:30:46;19.80;1.00
48936;DHT22;34745;52.276;10.528;2023-08-24T07:33:14;19.90;1.00
48936;DHT22;34745;52.276;10.528;2023-08-24T07:35:41;20.00;1.00
48936;DHT22;34745;52.276;10.528;2023-08-24T07:38:08;20.00;1.00
48936;DHT22;34745;52.276;10.528;2023-08-24T07:40:35;20.00;1.00
48936;DHT22;34745;52.276;10.528;2023-08-24T07:43:03;20.10;1.00
48936;DHT22;34745;52.276;10.528;2023-08-24T07:45:30;20.20;1.00
48936;DHT22;34745;52.276;10.528;2023-08-24T07:47:58;20.20;1.00
48936;DHT22;34745;52.276;10.528;2023-08-24T07:50:25;20.30;1.00
48936;DHT22;34745;52.276;10.528;2023-08-24T07:52:52;20.30;1.00
48936;DHT22;34745;52.276;10.528;2023-08-24T07:55:23;20.30;1.00
48936;DHT22;34745;52.276;10.528;2023-08-24T07:57:51;20.30;1.00
48936;DHT22;34745;52.276;10.528;2023-08-24T08:00:19;20.40;1.00
48936;DHT22;34745;52.276;10.528;2023-08-24T08:02:49;20.50;1.00
48936;DHT22;34745;52.276;10.528;2023-08-24T08:05:16;20.60;1.00
48936;DHT22;34745;52.276;10.528;2023-08-24T08:07:43;20.70;1.00
48936;DHT22;34745;52.276;10.528;2023-08-24T08:10:10;20.90;1.00
48936;DHT22;34745;52.276;10.528;2023-08-24T08:12:37;21.00;1.00
48936;DHT22;34745;52.276;10.528;2023-08-24T08:15:05;21.20;1.00
48936;DHT22;34745;52.276;10.528;2023-08-24T08:17:34;21.20;1.00
48936;DHT22;34745;52.276;10.528;2023-08-24T08:20:01;21.40;1.00
48936;DHT22;34745;52.276;10.528;2023-08-24T08:22:29;21.50;1.00
48936;DHT22;34745;52.276;10.528;2023-08-24T08:24:57;21.60;1.00
48936;DHT22;34745;52.276;10.528;2023-08-24T08:27:24;21.80;1.00
48936;DHT22;34745;52.276;10.528;2023-08-24T08:29:51;21.90;1.00
48936;DHT22;34745;52.276;10.528;2023-08-24T08:32:19;22.00;1.00
48936;DHT22;34745;52.276;10.528;2023-08-24T08:34:47;22.10;1.00
48936;DHT22;34745;52.276;10.528;2023-08-24T08:37:14;22.10;1.00
48936;DHT22;34745;52.276;10.528;2023-08-24T08:39:41;22.20;1.00
48936;DHT22;34745;52.276;10.528;2023-08-24T08:42:14;22.20;1.00
48936;DHT22;34745;52.276;10.528;2023-08-24T08:44:42;22.20;1.00
48936;DHT22;34745;52.276;10.528;2023-08-24T08:47:11;22.20;1.00
48936;DHT22;34745;52.276;10.528;2023-08-24T08:49:39;22.30;1.00
48936;DHT22;34745;52.276;10.528;2023-08-24T08:52:07;22.40;1.00
48936;DHT22;34745;52.276;10.528;2023-08-24T08:54:35;22.50;1.00
48936;DHT22;34745;52.276;10.528;2023-08-24T08:57:02;22.50;1.00
48936;DHT22;34745;52.276;10.528;2023-08-24T08:59:30;22.50;1.00
48936;DHT22;34745;52.276;10.528;2023-08-24T09:01:58;22.60;1.00
48936;DHT22;34745;52.276;10.528;2023-08-24T09:04:29;22.60;1.00
48936;DHT22;34745;52.276;10.528;2023-08-24T09:06:57;22.70;1.00
48936;DHT22;34745;52.276;10.528;2023-08-24T09:09:26;22.70;1.00
48936;DHT22;34745;52.276;10.528;2023-08-24T09:11:53;22.80;1.00
48936;DHT22;34745;52.276;10.528;2023-08-24T09:14:21;22.80;1.00
48936;DHT22;34745;52.276;10.528;2023-08-24T09:16:48;23.00;1.00
48936;DHT22;34745;52.276;10.528;2023-08-24T09:19:16;23.00;1.00
48936;DHT22;34745;52.276;10.528;2023-08-24T09:21:43;23.00;1.00
48936;DHT22;34745;52.276;10.528;2023-08-24T09:24:11;23.10;1.00
48936;DHT22;34745;52.276;10.528;2023-08-24T09:26:40;23.10;1.00
48936;DHT22;34745;52.276;10.528;2023-08-24T09:29:14;23.30;1.00
48936;DHT22;34745;52.276;10.528;2023-08-24T09:31:41;23.30;1.00
48936;DHT22;34745;52.276;10.528;2023-08-24T09:34:11;23.30;1.00
48936;DHT22;34745;52.276;10.528;2023-08-24T09:36:38;23.40;1.00
48936;DHT22;34745;52.276;10.528;2023-08-24T09:39:06;23.40;1.00
48936;DHT22;34745;52.276;10.528;2023-08-24T09:41:37;23.40;1.00
48936;DHT22;34745;52.276;10.528;2023-08-24T09:44:07;23.50;1.00
48936;DHT22;34745;52.276;10.528;2023-08-24T09:46:34;23.50;1.00
48936;DHT22;34745;52.276;10.528;2023-08-24T09:49:05;23.60;1.00
48936;DHT22;34745;52.276;10.528;2023-08-24T09:51:33;23.60;1.00
48936;DHT22;34745;52.276;10.528;2023-08-24T09:54:04;23.70;1.00
48936;DHT22;34745;52.276;10.528;2023-08-24T09:56:36;23.80;1.00
48936;DHT22;34745;52.276;10.528;2023-08-24T09:59:11;23.90;1.00
48936;DHT22;34745;52.276;10.528;2023-08-24T10:01:42;23.90;1.00
48936;DHT22;34745;52.276;10.528;2023-08-24T10:04:12;24.00;1.00
48936;DHT22;34745;52.276;10.528;2023-08-24T10:06:40;24.00;1.00
48936;DHT22;34745;52.276;10.528;2023-08-24T10:09:09;24.00;1.00
48936;DHT22;34745;52.276;10.528;2023-08-24T10:11:43;24.20;1.00
48936;DHT22;34745;52.276;10.528;2023-08-24T10:14:19;24.30;1.00
48936;DHT22;34745;52.276;10.528;2023-08-24T10:16:48;24.50;1.00
48936;DHT22;34745;52.276;10.528;2023-08-24T10:19:16;24.40;1.00
48936;DHT22;34745;52.276;10.528;2023-08-24T10:21:44;24.40;1.00
48936;DHT22;34745;52.276;10.528;2023-08-24T10:24:12;24.30;1.00
48936;DHT22;34745;52.276;10.528;2023-08-24T10:26:42;24.30;1.00
48936;DHT22;34745;52.276;10.528;2023-08-24T10:29:10;24.40;1.00
48936;DHT22;34745;52.276;10.528;2023-08-24T10:31:39;24.40;1.00
48936;DHT22;34745;52.276;10.528;2023-08-24T10:34:07;24.40;1.00
48936;DHT22;34745;52.276;10.528;2023-08-24T10:36:38;24.50;1.00
48936;DHT22;34745;52.276;10.528;2023-08-24T10:39:05;24.60;1.00
48936;DHT22;34745;52.276;10.528;2023-08-24T10:41:48;24.70;1.00
48936;DHT22;34745;52.276;10.528;2023-08-24T10:44:24;24.70;1.00
48936;DHT22;34745;52.276;10.528;2023-08-24T10:47:15;24.70;1.00
48936;DHT22;34745;52.276;10.528;2023-08-24T10:49:42;24.90;1.00
48936;DHT22;34745;52.276;10.528;2023-08-24T10:52:17;24.90;1.00
48936;DHT22;34745;52.276;10.528;2023-08-24T10:54:48;25.10;1.00
48936;DHT22;34745;52.276;10.528;2023-08-24T10:57:20;25.10;1.00
48936;DHT22;34745;52.276;10.528;2023-08-24T11:00:03;25.30;1.00
48936;DHT22;34745;52.276;10.528;2023-08-24T11:02:44;25.40;1.00
48936;DHT22;34745;52.276;10.528;2023-08-24T11:05:16;25.50;1.00
48936;DHT22;34745;52.276;10.528;2023-08-24T11:07:51;25.60;1.00
48936;DHT22;34745;52.276;10.528;2023-08-24T11:10:19;25.70;1.00
48936;DHT22;34745;52.276;10.528;2023-08-24T11:13:12;25.80;1.00
48936;DHT22;34745;52.276;10.528;2023-08-24T11:15:40;26.00;1.00
48936;DHT22;34745;52.276;10.528;2023-08-24T11:18:20;26.00;1.00
48936;DHT22;34745;52.276;10.528;2023-08-24T11:20:49;26.10;1.00
48936;DHT22;34745;52.276;10.528;2023-08-24T11:23:17;26.10;1.00
48936;DHT22;34745;52.276;10.528;2023-08-24T11:25:45;26.20;1.00
48936;DHT22;34745;52.276;10.528;2023-08-24T11:28:17;26.40;1.00
48936;DHT22;34745;52.276;10.528;2023-08-24T11:30:45;26.40;1.00
48936;DHT22;34745;52.276;10.528;2023-08-24T11:33:14;26.30;1.00
48936;DHT22;34745;52.276;10.528;2023-08-24T11:35:44;26.30;1.00
48936;DHT22;34745;52.276;10.528;2023-08-24T11:38:12;26.30;1.00
48936;DHT22;34745;52.276;10.528;2023-08-24T11:40:39;26.40;1.00
48936;DHT22;34745;52.276;10.528;2023-08-24T11:43:06;26.40;99.90
48936;DHT22;34745;52.276;10.528;2023-08-24T11:45:35;26.40;99.90
48936;DHT22;34745;52.276;10.528;2023-08-24T11:48:04;26.50;1.00
48936;DHT22;34745;52.276;10.528;2023-08-24T11:50:33;26.70;1.00
48936;DHT22;34745;52.276;10.528;2023-08-24T11:53:06;26.70;99.90
48936;DHT22;34745;52.276;10.528;2023-08-24T11:55:33;26.80;99.90
48936;DHT22;34745;52.276;10.528;2023-08-24T11:58:01;26.90;99.90
48936;DHT22;34745;52.276;10.528;2023-08-24T12:00:28;26.90;99.90
48936;DHT22;34745;52.276;10.528;2023-08-24T12:02:55;27.20;99.90
48936;DHT22;34745;52.276;10.528;2023-08-24T12:05:26;27.30;99.90
48936;DHT22;34745;52.276;10.528;2023-08-24T12:07:54;27.30;99.90
48936;DHT22;34745;52.276;10.528;2023-08-24T12:10:24;27.60;99.90
48936;DHT22;34745;52.276;10.528;2023-08-24T12:13:02;27.90;99.90
48936;DHT22;34745;52.276;10.528;2023-08-24T12:15:29;28.00;99.90
48936;DHT22;34745;52.276;10.528;2023-08-24T12:17:56;28.00;99.90
48936;DHT22;34745;52.276;10.528;2023-08-24T12:20:24;27.90;99.90
48936;DHT22;34745;52.276;10.528;2023-08-24T12:22:52;28.10;99.90
48936;DHT22;34745;52.276;10.528;2023-08-24T12:25:24;28.30;99.90
48936;DHT22;34745;52.276;10.528;2023-08-24T12:27:51;28.40;99.90
48936;DHT22;34745;52.276;10.528;2023-08-24T12:30:19;28.50;99.90
48936;DHT22;34745;52.276;10.528;2023-08-24T12:32:48;28.20;99.90
48936;DHT22;34745;52.276;10.528;2023-08-24T12:35:18;28.40;99.90
48936;DHT22;34745;52.276;10.528;2023-08-24T12:37:45;28.60;99.90
48936;DHT22;34745;52.276;10.528;2023-08-24T12:40:12;28.60;99.90
48936;DHT22;34745;52.276;10.528;2023-08-24T12:42:41;28.90;99.90
48936;DHT22;34745;52.276;10.528;2023-08-24T12:45:08;29.20;99.90
48936;DHT22;34745;52.276;10.528;2023-08-24T12:47:35;29.30;99.90
48936;DHT22;34745;52.276;10.528;2023-08-24T12:50:08;29.50;99.90
48936;DHT22;34745;52.276;10.528;2023-08-24T12:52:35;29.60;99.90
48936;DHT22;34745;52.276;10.528;2023-08-24T12:55:03;29.70;99.90
48936;DHT22;34745;52.276;10.528;2023-08-24T12:57:31;29.90;99.90
48936;DHT22;34745;52.276;10.528;2023-08-24T12:59:59;29.90;99.90
48936;DHT22;34745;52.276;10.528;2023-08-24T13:02:26;29.60;99.90
48936;DHT22;34745;52.276;10.528;2023-08-24T13:05:05;29.50;99.90
48936;DHT22;34745;52.276;10.528;2023-08-24T13:07:32;30.00;99.90
48936;DHT22;34745;52.276;10.528;2023-08-24T13:10:00;30.20;99.90
48936;DHT22;34745;52.276;10.528;2023-08-24T13:12:27;30.50;99.90
48936;DHT22;34745;52.276;10.528;2023-08-24T13:14:54;30.60;99.90
48936;DHT22;34745;52.276;10.528;2023-08-24T13:17:22;30.80;99.90
48936;DHT22;34745;52.276;10.528;2023-08-24T13:19:49;30.80;99.90
48936;DHT22;34745;52.276;10.528;2023-08-24T13:22:16;30.90;99.90
48936;DHT22;34745;52.276;10.528;2023-08-24T13:24:43;31.00;99.90
48936;DHT22;34745;52.276;10.528;2023-08-24T13:27:11;31.00;99.90
48936;DHT22;34745;52.276;10.528;2023-08-24T13:29:39;31.00;99.90
48936;DHT22;34745;52.276;10.528;2023-08-24T13:32:06;31.10;99.90
48936;DHT22;34745;52.276;10.528;2023-08-24T13:34:36;31.00;99.90
48936;DHT22;34745;52.276;10.528;2023-08-24T13:37:03;31.20;99.90
48936;DHT22;34745;52.276;10.528;2023-08-24T13:39:31;31.40;99.90
48936;DHT22;34745;52.276;10.528;2023-08-24T13:42:01;31.50;99.90
48936;DHT22;34745;52.276;10.528;2023-08-24T13:44:29;31.60;99.90
48936;DHT22;34745;52.276;10.528;2023-08-24T13:46:56;31.60;99.90
48936;DHT22;34745;52.276;10.528;2023-08-24T13:49:23;31.70;99.90
48936;DHT22;34745;52.276;10.528;2023-08-24T13:52:07;31.50;99.90
48936;DHT22;34745;52.276;10.528;2023-08-24T13:54:34;31.60;99.90
48936;DHT22;34745;52.276;10.528;2023-08-24T13:57:02;32.00;99.90
48936;DHT22;34745;52.276;10.528;2023-08-24T13:59:28;32.10;99.90
48936;DHT22;34745;52.276;10.528;2023-08-24T14:01:56;32.10;99.90
48936;DHT22;34745;52.276;10.528;2023-08-24T14:04:23;32.00;99.90
48936;DHT22;34745;52.276;10.528;2023-08-24T14:06:50;32.00;99.90
48936;DHT22;34745;52.276;10.528;2023-08-24T14:09:18;32.20;99.90
48936;DHT22;34745;52.276;10.528;2023-08-24T14:11:46;32.40;99.90
48936;DHT22;34745;52.276;10.528;2023-08-24T14:14:14;32.80;99.90
48936;DHT22;34745;52.276;10.528;2023-08-24T14:16:41;32.70;99.90
48936;DHT22;34745;52.276;10.528;2023-08-24T14:19:08;31.80;99.90
48936;DHT22;34745;52.276;10.528;2023-08-24T14:21:36;30.90;99.90
48936;DHT22;34745;52.276;10.528;2023-08-24T14:24:11;30.80;99.90
48936;DHT22;34745;52.276;10.528;2023-08-24T14:26:39;31.00;99.90
48936;DHT22;34745;52.276;10.528;2023-08-24T14:29:12;31.00;99.90
48936;DHT22;34745;52.276;10.528;2023-08-24T14:31:40;30.90;99.90
48936;DHT22;34745;52.276;10.528;2023-08-24T14:34:07;30.60;99.90
48936;DHT22;34745;52.276;10.528;2023-08-24T14:36:34;30.40;99.90
48936;DHT22;34745;52.276;10.528;2023-08-24T14:39:02;30.10;99.90
48936;DHT22;34745;52.276;10.528;2023-08-24T14:41:29;29.90;99.90
48936;DHT22;34745;52.276;10.528;2023-08-24T14:43:58;29.60;99.90
48936;DHT22;34745;52.276;10.528;2023-08-24T14:46:25;29.60;99.90
48936;DHT22;34745;52.276;10.528;2023-08-24T14:48:52;29.40;99.90
48936;DHT22;34745;52.276;10.528;2023-08-24T14:51:20;29.40;99.90
48936;DHT22;34745;52.276;10.528;2023-08-24T14:53:47;29.60;99.90
48936;DHT22;34745;52.276;10.528;2023-08-24T14:56:14;29.60;99.90
48936;DHT22;34745;52.276;10.528;2023-08-24T14:58:41;29.80;99.90
48936;DHT22;34745;52.276;10.528;2023-08-24T15:01:10;30.00;99.90
48936;DHT22;34745;52.276;10.528;2023-08-24T15:03:37;30.10;99.90
48936;DHT22;34745;52.276;10.528;2023-08-24T15:06:05;29.90;99.90
48936;DHT22;34745;52.276;10.528;2023-08-24T15:08:33;29.60;99.90
48936;DHT22;34745;52.276;10.528;2023-08-24T15:11:01;29.60;99.90
48936;DHT22;34745;52.276;10.528;2023-08-24T15:13:31;29.60;99.90
48936;DHT22;34745;52.276;10.528;2023-08-24T15:15:58;29.50;99.90
48936;DHT22;34745;52.276;10.528;2023-08-24T15:18:27;29.40;99.90
48936;DHT22;34745;52.276;10.528;2023-08-24T15:20:54;29.40;99.90
48936;DHT22;34745;52.276;10.528;2023-08-24T15:23:24;29.30;99.90
48936;DHT22;34745;52.276;10.528;2023-08-24T15:25:52;29.10;99.90
48936;DHT22;34745;52.276;10.528;2023-08-24T15:28:20;28.90;99.90
48936;DHT22;34745;52.276;10.528;2023-08-24T15:30:47;28.70;99.90
48936;DHT22;34745;52.276;10.528;2023-08-24T15:33:14;28.40;99.90
48936;DHT22;34745;52.276;10.528;2023-08-24T15:35:43;28.30;99.90